createdAt,value
2018-11-14T00:02:00.940Z,95.50
2018-11-14T00:04:31.113Z,95.70
2018-11-14T00:07:01.079Z,95.70
2018-11-14T00:09:30.936Z,96.00
2018-11-14T00:12:01.463Z,95.90
2018-11-14T00:14:32.175Z,95.90
2018-11-14T00:17:01.969Z,96.00
2018-11-14T00:19:32.338Z,96.00
2018-11-14T00:22:02.434Z,96.00
2018-11-14T00:24:32.492Z,95.90
2018-11-14T00:27:03.378Z,95.60
2018-11-14T00:29:34.023Z,95.90
2018-11-14T00:32:04.759Z,95.80
2018-11-14T00:34:34.844Z,95.80
2018-11-14T00:37:04.595Z,96.00
2018-11-14T00:39:34.721Z,96.00
2018-11-14T00:42:05.152Z,96.00
2018-11-14T00:44:34.962Z,96.10
2018-11-14T00:47:05.442Z,96.20
2018-11-14T00:49:35.814Z,96.30
2018-11-14T00:52:16.262Z,96.30
2018-11-14T00:54:46.850Z,96.20
2018-11-14T00:57:17.888Z,96.00
2018-11-14T00:59:47.960Z,96.20
2018-11-14T01:02:18.829Z,96.30
2018-11-14T01:04:48.641Z,96.30
2018-11-14T01:07:18.503Z,96.30
2018-11-14T01:09:48.821Z,96.20
2018-11-14T01:12:20.221Z,96.70
2018-11-14T01:14:50.269Z,96.20
2018-11-14T01:17:20.320Z,96.20
2018-11-14T01:19:50.322Z,96.20
2018-11-14T01:22:21.091Z,96.40
2018-11-14T01:24:51.206Z,96.40
2018-11-14T01:27:21.187Z,96.40
2018-11-14T01:29:51.791Z,96.40
2018-11-14T01:32:21.587Z,96.40
2018-11-14T01:34:51.562Z,96.30
2018-11-14T01:37:21.621Z,96.30
2018-11-14T01:39:51.558Z,96.30
2018-11-14T01:42:22.611Z,96.30
2018-11-14T01:45:04.997Z,96.30
2018-11-14T01:47:35.202Z,96.50
2018-11-14T01:50:05.982Z,96.60
2018-11-14T01:52:35.790Z,96.70
2018-11-14T01:55:06.595Z,96.80
2018-11-14T01:57:36.589Z,96.90
2018-11-14T02:00:10.335Z,96.80
2018-11-14T02:02:41.427Z,96.70
2018-11-14T02:05:11.893Z,96.50
2018-11-14T02:07:42.304Z,96.70
2018-11-14T02:10:13.644Z,96.50
2018-11-14T02:12:44.164Z,96.40
2018-11-14T02:15:16.444Z,96.60
2018-11-14T02:17:46.480Z,96.30
2018-11-14T02:20:16.553Z,96.30
2018-11-14T02:22:47.091Z,95.70
2018-11-14T02:25:17.571Z,95.70
2018-11-14T02:27:47.505Z,95.90
2018-11-14T02:30:20.583Z,96.00
2018-11-14T02:32:51.808Z,95.90
2018-11-14T02:35:21.963Z,96.10
2018-11-14T02:37:52.216Z,96.10
2018-11-14T02:40:22.981Z,95.90
2018-11-14T02:42:53.169Z,96.00
2018-11-14T02:45:23.635Z,95.70
2018-11-14T02:47:53.648Z,95.80
2018-11-14T02:50:23.549Z,96.20
2018-11-14T02:52:53.965Z,96.30
2018-11-14T02:55:24.123Z,96.50
2018-11-14T02:57:55.679Z,96.40
2018-11-14T03:00:25.679Z,96.50
2018-11-14T03:02:56.140Z,96.70
2018-11-14T03:05:26.183Z,96.50
2018-11-14T03:07:56.164Z,96.50
2018-11-14T03:10:26.181Z,96.40
2018-11-14T03:12:56.891Z,96.50
2018-11-14T03:15:26.788Z,96.40
2018-11-14T03:17:56.748Z,96.40
2018-11-14T03:20:26.645Z,96.90
2018-11-14T03:22:56.568Z,96.80
2018-11-14T03:25:26.891Z,96.80
2018-11-14T03:27:57.338Z,96.30
2018-11-14T03:30:27.308Z,96.30
2018-11-14T03:32:57.081Z,96.30
2018-11-14T03:35:31.125Z,95.80
2018-11-14T03:38:01.279Z,95.70
2018-11-14T03:40:31.480Z,95.50
2018-11-14T03:43:01.959Z,95.00
2018-11-14T03:45:31.906Z,95.10
2018-11-14T03:48:01.988Z,95.10
2018-11-14T03:50:31.687Z,95.00
2018-11-14T03:53:01.599Z,94.60
2018-11-14T03:55:31.866Z,94.70
2018-11-14T03:58:01.747Z,94.80
2018-11-14T04:00:32.461Z,94.40
2018-11-14T04:03:02.602Z,94.60
2018-11-14T04:05:33.242Z,94.60
2018-11-14T04:08:03.947Z,94.70
2018-11-14T04:10:33.680Z,94.80
2018-11-14T04:13:03.564Z,95.00
2018-11-14T04:15:34.516Z,94.70
2018-11-14T04:18:04.471Z,94.70
2018-11-14T04:20:34.632Z,94.30
2018-11-14T04:23:04.868Z,94.20
2018-11-14T04:25:34.770Z,94.30
2018-11-14T04:28:04.796Z,94.30
2018-11-14T04:30:34.896Z,94.30
2018-11-14T04:33:05.370Z,94.20
2018-11-14T04:35:36.168Z,94.40
2018-11-14T04:38:06.070Z,94.20
2018-11-14T04:40:36.367Z,94.60
2018-11-14T04:43:06.332Z,94.50
2018-11-14T04:45:36.797Z,95.00
2018-11-14T04:48:07.251Z,95.30
2018-11-14T04:50:37.040Z,95.90
2018-11-14T04:53:06.972Z,96.00
2018-11-14T04:55:37.045Z,96.10
2018-11-14T04:58:06.819Z,96.40
2018-11-14T05:00:37.255Z,96.50
2018-11-14T05:03:16.408Z,96.50
2018-11-14T05:05:58.506Z,96.90
2018-11-14T05:08:30.291Z,96.70
2018-11-14T05:11:00.159Z,96.70
2018-11-14T05:13:30.524Z,96.70
2018-11-14T05:16:00.709Z,96.70
2018-11-14T05:18:31.223Z,96.50
2018-11-14T05:21:01.555Z,96.50
2018-11-14T05:23:31.864Z,96.00
2018-11-14T05:26:02.037Z,95.90
2018-11-14T05:28:32.578Z,96.00
2018-11-14T05:31:04.185Z,96.20
2018-11-14T05:33:34.072Z,96.10
2018-11-14T05:36:04.455Z,95.80
2018-11-14T05:38:34.712Z,95.90
2018-11-14T05:41:04.556Z,95.60
2018-11-14T05:43:34.971Z,96.00
2018-11-14T05:46:05.616Z,95.50
2018-11-14T05:48:35.976Z,95.10
2018-11-14T05:51:06.263Z,94.80
2018-11-14T05:53:37.440Z,94.50
2018-11-14T05:56:07.623Z,94.60
2018-11-14T05:58:37.649Z,94.70
2018-11-14T06:01:08.068Z,94.70
2018-11-14T06:03:40.074Z,94.70
2018-11-14T06:06:10.666Z,94.80
2018-11-14T06:08:42.212Z,94.90
2018-11-14T06:11:12.659Z,94.90
2018-11-14T06:13:43.451Z,94.70
2018-11-14T06:16:13.476Z,94.70
2018-11-14T06:18:44.970Z,94.60
2018-11-14T06:21:16.047Z,94.70
2018-11-14T06:23:46.265Z,94.60
2018-11-14T06:26:17.414Z,94.40
2018-11-14T06:28:47.643Z,94.40
2018-11-14T06:31:24.935Z,94.10
2018-11-14T06:34:02.806Z,94.60
2018-11-14T06:36:33.096Z,94.10
2018-11-14T06:39:04.001Z,94.00
2018-11-14T06:41:35.060Z,93.90
2018-11-14T06:44:05.519Z,93.90
2018-11-14T06:46:36.124Z,93.80
2018-11-14T06:49:06.576Z,93.80
2018-11-14T06:51:37.638Z,93.60
2018-11-14T06:54:07.556Z,93.60
2018-11-14T06:56:37.719Z,93.40
2018-11-14T06:59:07.879Z,93.60
2018-11-14T07:01:38.697Z,93.60
2018-11-14T07:04:09.312Z,93.60
2018-11-14T07:06:40.069Z,93.50
2018-11-14T07:09:12.353Z,93.40
2018-11-14T07:11:42.593Z,93.50
2018-11-14T07:14:13.573Z,93.40
2018-11-14T07:16:45.619Z,93.60
2018-11-14T07:19:16.784Z,93.50
2018-11-14T07:21:46.916Z,93.60
2018-11-14T07:24:17.979Z,93.60
2018-11-14T07:26:48.659Z,93.70
2018-11-14T07:29:18.470Z,93.80
2018-11-14T07:31:50.128Z,93.80
2018-11-14T07:34:23.136Z,93.70
2018-11-14T07:36:53.140Z,93.80
2018-11-14T07:39:23.557Z,93.80
2018-11-14T07:41:53.502Z,94.10
2018-11-14T07:44:23.991Z,94.20
2018-11-14T07:46:56.271Z,94.30
2018-11-14T07:49:27.378Z,94.30
2018-11-14T07:51:57.835Z,94.50
2018-11-14T07:54:28.030Z,94.70
2018-11-14T07:56:58.076Z,94.80
2018-11-14T07:59:28.895Z,95.10
2018-11-14T08:01:59.016Z,95.00
2018-11-14T08:04:29.781Z,97.90
2018-11-14T08:07:00.699Z,99.90
2018-11-14T08:09:30.879Z,99.90
2018-11-14T08:12:01.161Z,99.90
2018-11-14T08:14:31.968Z,99.90
2018-11-14T08:17:04.240Z,99.90
2018-11-14T08:19:34.464Z,99.00
2018-11-14T08:22:04.599Z,97.90
2018-11-14T08:24:35.344Z,93.40
2018-11-14T08:27:05.499Z,93.20
2018-11-14T08:29:36.583Z,92.80
2018-11-14T08:32:08.057Z,95.10
2018-11-14T08:34:39.959Z,94.80
2018-11-14T08:37:10.652Z,91.30
2018-11-14T08:39:41.024Z,90.70
2018-11-14T08:42:11.362Z,90.50
2018-11-14T08:44:42.392Z,89.20
2018-11-14T08:47:13.025Z,88.10
2018-11-14T08:49:43.431Z,89.50
2018-11-14T08:52:13.218Z,89.80
2018-11-14T08:54:44.195Z,86.60
2018-11-14T08:57:14.945Z,80.50
2018-11-14T08:59:45.151Z,86.60
2018-11-14T09:02:17.000Z,80.10
2018-11-14T09:04:48.583Z,83.30
2018-11-14T09:07:20.609Z,81.20
2018-11-14T09:09:50.713Z,81.80
2018-11-14T09:12:21.768Z,86.00
2018-11-14T09:14:53.761Z,87.00
2018-11-14T09:17:24.151Z,83.10
2018-11-14T09:19:55.169Z,85.00
2018-11-14T09:22:25.042Z,80.00
2018-11-14T09:24:55.646Z,83.60
2018-11-14T09:27:28.968Z,80.20
2018-11-14T09:30:00.324Z,81.60
2018-11-14T09:32:30.095Z,80.50
2018-11-14T09:35:00.235Z,82.90
2018-11-14T09:37:30.244Z,78.80
2018-11-14T09:40:01.759Z,77.10
2018-11-14T09:42:33.921Z,78.90
2018-11-14T09:45:03.996Z,77.40
2018-11-14T09:47:34.042Z,71.50
2018-11-14T09:50:08.918Z,68.70
2018-11-14T09:52:40.239Z,69.20
2018-11-14T09:55:11.811Z,69.20
2018-11-14T09:57:42.742Z,69.30
2018-11-14T10:00:15.053Z,74.70
2018-11-14T10:02:47.178Z,69.50
2018-11-14T10:05:19.108Z,72.70
2018-11-14T10:07:49.589Z,70.50
2018-11-14T10:12:49.537Z,72.00
2018-11-14T10:15:23.375Z,68.60
2018-11-14T10:17:54.256Z,65.10
2018-11-14T10:20:25.580Z,67.60
2018-11-14T10:22:58.431Z,67.50
2018-11-14T10:25:28.656Z,68.70
2018-11-14T10:27:59.372Z,67.90
2018-11-14T10:30:30.110Z,68.50
2018-11-14T10:33:02.544Z,70.60
2018-11-14T10:35:33.434Z,71.10
2018-11-14T10:38:04.386Z,69.80
2018-11-14T10:40:34.467Z,64.30
2018-11-14T10:43:05.193Z,67.90
2018-11-14T10:45:36.763Z,69.60
2018-11-14T10:48:07.419Z,72.90
2018-11-14T10:50:37.445Z,66.20
2018-11-14T10:53:07.771Z,67.90
2018-11-14T10:55:40.683Z,68.00
2018-11-14T10:58:12.435Z,68.80
2018-11-14T11:00:53.401Z,66.90
2018-11-14T11:03:29.523Z,67.50
2018-11-14T11:06:07.068Z,66.00
2018-11-14T11:08:43.236Z,69.80
2018-11-14T11:11:18.751Z,68.10
2018-11-14T11:14:21.093Z,68.90
2018-11-14T11:16:58.271Z,69.90
2018-11-14T11:19:30.963Z,71.30
2018-11-14T11:22:03.079Z,66.80
2018-11-14T11:24:35.424Z,71.20
2018-11-14T11:27:08.115Z,71.00
2018-11-14T11:29:40.481Z,69.40
2018-11-14T11:32:10.857Z,68.40
2018-11-14T11:34:41.051Z,70.50
2018-11-14T11:37:10.947Z,69.80
2018-11-14T11:39:41.671Z,72.30
2018-11-14T11:42:12.596Z,67.50
2018-11-14T11:44:44.590Z,67.60
2018-11-14T11:47:15.120Z,71.60
2018-11-14T11:49:45.188Z,69.00
2018-11-14T11:52:15.782Z,71.30
2018-11-14T11:54:46.146Z,72.30
2018-11-14T11:57:16.944Z,67.90
2018-11-14T11:59:47.242Z,69.30
2018-11-14T12:02:18.453Z,69.50
2018-11-14T12:04:49.219Z,66.80
2018-11-14T12:07:20.210Z,68.30
2018-11-14T12:09:53.143Z,69.80
2018-11-14T12:12:23.537Z,67.00
2018-11-14T12:14:54.040Z,69.20
2018-11-14T12:17:25.279Z,66.90
2018-11-14T12:19:56.239Z,64.70
2018-11-14T12:22:26.767Z,65.50
2018-11-14T12:24:58.071Z,65.70
2018-11-14T12:27:28.141Z,65.60
2018-11-14T12:29:59.841Z,64.70
2018-11-14T12:32:32.040Z,64.90
2018-11-14T12:35:02.415Z,64.80
2018-11-14T12:37:33.650Z,62.80
2018-11-14T12:40:06.641Z,64.70
2018-11-14T12:42:36.438Z,62.70
2018-11-14T12:45:10.034Z,66.20
2018-11-14T12:47:40.271Z,68.40
2018-11-14T12:50:12.050Z,64.80
2018-11-14T12:52:42.302Z,66.00
2018-11-14T12:55:15.096Z,65.00
2018-11-14T12:57:47.272Z,67.40
2018-11-14T13:00:19.505Z,68.10
2018-11-14T13:02:50.484Z,68.20
2018-11-14T13:05:21.984Z,71.10
2018-11-14T13:07:52.247Z,67.90
2018-11-14T13:10:22.983Z,69.30
2018-11-14T13:12:53.925Z,69.10
2018-11-14T13:15:28.287Z,69.30
2018-11-14T13:18:00.663Z,67.50
2018-11-14T13:20:32.310Z,66.80
2018-11-14T13:23:08.306Z,67.00
2018-11-14T13:25:41.581Z,69.70
2018-11-14T13:28:18.489Z,68.50
2018-11-14T13:30:52.763Z,66.90
2018-11-14T13:33:27.633Z,66.90
2018-11-14T13:35:58.643Z,67.60
2018-11-14T13:38:28.835Z,65.70
2018-11-14T13:40:59.373Z,64.70
2018-11-14T13:43:32.765Z,66.30
2018-11-14T13:46:04.504Z,66.00
2018-11-14T13:48:35.441Z,68.00
2018-11-14T13:51:10.046Z,68.50
2018-11-14T13:53:42.361Z,70.10
2018-11-14T13:56:13.485Z,69.60
2018-11-14T13:58:44.934Z,70.90
2018-11-14T14:01:16.593Z,68.90
2018-11-14T14:03:47.101Z,70.00
2018-11-14T14:06:19.664Z,69.40
2018-11-14T14:08:51.055Z,70.00
2018-11-14T14:11:21.821Z,69.60
2018-11-14T14:13:58.129Z,71.20
2018-11-14T14:16:30.627Z,71.60
2018-11-14T14:19:00.908Z,71.30
2018-11-14T14:21:33.079Z,71.60
2018-11-14T14:24:03.808Z,70.30
2018-11-14T14:26:34.370Z,71.80
2018-11-14T14:29:04.598Z,72.10
2018-11-14T14:31:37.368Z,72.60
2018-11-14T14:34:08.411Z,71.90
2018-11-14T14:36:40.467Z,73.10
2018-11-14T14:39:12.295Z,74.00
2018-11-14T14:41:42.147Z,73.10
2018-11-14T14:44:13.594Z,73.80
2018-11-14T14:46:44.892Z,74.70
2018-11-14T14:49:15.685Z,74.60
2018-11-14T14:51:45.752Z,74.90
2018-11-14T14:54:16.916Z,74.60
2018-11-14T14:56:49.560Z,75.10
2018-11-14T14:59:20.674Z,75.80
2018-11-14T15:01:51.689Z,76.10
2018-11-14T15:04:22.984Z,76.20
2018-11-14T15:06:53.995Z,76.70
2018-11-14T15:09:36.882Z,76.80
2018-11-14T15:12:18.310Z,77.40
2018-11-14T15:14:49.576Z,76.50
2018-11-14T15:17:19.831Z,77.20
2018-11-14T15:19:56.994Z,78.00
2018-11-14T15:22:34.238Z,77.70
2018-11-14T15:25:05.698Z,78.20
2018-11-14T15:27:44.448Z,79.00
2018-11-14T15:30:17.915Z,79.20
2018-11-14T15:32:48.291Z,80.10
2018-11-14T15:35:18.329Z,79.60
2018-11-14T15:37:48.362Z,79.60
2018-11-14T15:40:22.200Z,79.10
2018-11-14T15:42:52.910Z,79.20
2018-11-14T15:45:27.200Z,80.00
2018-11-14T15:47:58.267Z,80.50
2018-11-14T15:50:30.007Z,81.10
2018-11-14T15:53:00.708Z,81.20
2018-11-14T15:55:31.348Z,81.10
2018-11-14T15:58:02.777Z,82.00
2018-11-14T16:00:33.675Z,82.70
2018-11-14T16:03:05.996Z,83.00
2018-11-14T16:05:36.817Z,83.20
2018-11-14T16:08:08.297Z,83.50
2018-11-14T16:10:39.422Z,84.60
2018-11-14T16:13:10.101Z,83.70
2018-11-14T16:15:40.885Z,82.00
2018-11-14T16:18:11.336Z,82.00
2018-11-14T16:20:42.432Z,81.20
2018-11-14T16:23:18.127Z,80.10
2018-11-14T16:25:48.363Z,80.00
2018-11-14T16:28:20.078Z,79.60
2018-11-14T16:30:51.428Z,79.60
2018-11-14T16:33:21.868Z,79.70
2018-11-14T16:35:52.779Z,79.50
2018-11-14T16:38:26.477Z,79.90
2018-11-14T16:40:56.799Z,79.90
2018-11-14T16:43:28.988Z,80.00
2018-11-14T16:46:01.133Z,80.10
2018-11-14T16:48:32.375Z,80.70
2018-11-14T16:51:03.240Z,80.60
2018-11-14T16:53:33.491Z,80.80
2018-11-14T16:56:03.922Z,80.90
2018-11-14T16:58:34.411Z,80.30
2018-11-14T17:01:04.626Z,81.10
2018-11-14T17:03:35.070Z,81.60
2018-11-14T17:06:05.144Z,81.20
2018-11-14T17:08:36.258Z,81.00
2018-11-14T17:11:07.417Z,81.90
2018-11-14T17:13:37.667Z,82.30
2018-11-14T17:16:09.397Z,81.90
2018-11-14T17:18:41.640Z,81.50
2018-11-14T17:21:17.124Z,81.70
2018-11-14T17:23:48.144Z,82.10
2018-11-14T17:26:19.069Z,82.50
2018-11-14T17:28:50.620Z,81.90
2018-11-14T17:31:22.071Z,81.90
2018-11-14T17:33:52.059Z,82.80
2018-11-14T17:36:22.507Z,82.40
2018-11-14T17:38:56.388Z,82.60
2018-11-14T17:41:29.666Z,82.40
2018-11-14T17:44:00.148Z,82.50
2018-11-14T17:46:32.435Z,82.70
2018-11-14T17:49:03.268Z,83.20
2018-11-14T17:51:33.966Z,83.70
2018-11-14T17:54:04.627Z,83.40
2018-11-14T17:56:35.831Z,83.80
2018-11-14T17:59:07.108Z,84.00
2018-11-14T18:01:37.562Z,84.50
2018-11-14T18:04:09.235Z,84.10
2018-11-14T18:06:43.419Z,84.10
2018-11-14T18:09:16.140Z,84.80
2018-11-14T18:11:48.180Z,85.40
2018-11-14T18:14:22.329Z,85.30
2018-11-14T18:16:53.479Z,85.10
2018-11-14T18:19:24.287Z,85.40
2018-11-14T18:21:57.044Z,84.90
2018-11-14T18:24:28.577Z,85.70
2018-11-14T18:27:02.598Z,86.40
2018-11-14T18:29:33.227Z,86.10
2018-11-14T18:32:03.968Z,86.20
2018-11-14T18:34:34.130Z,85.60
2018-11-14T18:37:06.402Z,85.90
2018-11-14T18:39:37.755Z,87.70
2018-11-14T18:42:08.800Z,87.50
2018-11-14T18:44:40.648Z,87.40
2018-11-14T18:47:11.955Z,87.30
2018-11-14T18:49:44.895Z,88.50
2018-11-14T18:52:17.310Z,90.50
2018-11-14T18:54:50.245Z,90.50
2018-11-14T18:57:23.225Z,90.10
2018-11-14T18:59:56.016Z,90.10
2018-11-14T19:02:29.496Z,90.00
2018-11-14T19:05:01.861Z,90.00
2018-11-14T19:07:33.304Z,90.80
2018-11-14T19:10:05.947Z,91.00
2018-11-14T19:12:40.411Z,90.40
2018-11-14T19:15:15.280Z,90.70
2018-11-14T19:17:49.811Z,91.30
2018-11-14T19:20:24.438Z,91.40
2018-11-14T19:22:58.162Z,92.00
2018-11-14T19:25:31.261Z,92.10
2018-11-14T19:28:01.673Z,92.20
2018-11-14T19:30:36.875Z,91.70
2018-11-14T19:33:09.946Z,91.60
2018-11-14T19:35:42.401Z,91.70
2018-11-14T19:38:15.940Z,92.10
2018-11-14T19:40:48.711Z,92.40
2018-11-14T19:43:21.456Z,92.50
2018-11-14T19:45:53.933Z,91.40
2018-11-14T19:48:25.075Z,90.90
2018-11-14T19:50:58.692Z,90.90
2018-11-14T19:53:28.926Z,90.60
2018-11-14T19:56:00.333Z,90.60
2018-11-14T19:58:32.478Z,90.30
2018-11-14T20:01:04.484Z,91.60
2018-11-14T20:03:35.525Z,92.40
2018-11-14T20:06:09.155Z,93.20
2018-11-14T20:08:42.035Z,93.90
2018-11-14T20:11:13.503Z,94.20
2018-11-14T20:13:45.436Z,93.80
2018-11-14T20:16:15.672Z,94.10
2018-11-14T20:18:47.325Z,94.20
2018-11-14T20:21:19.019Z,94.10
2018-11-14T20:23:49.654Z,94.10
2018-11-14T20:26:21.364Z,94.20
2018-11-14T20:28:51.764Z,94.20
2018-11-14T20:31:22.436Z,94.30
2018-11-14T20:33:56.544Z,94.40
2018-11-14T20:36:30.288Z,94.30
2018-11-14T20:39:06.062Z,94.20
2018-11-14T20:41:36.365Z,93.40
2018-11-14T20:44:07.309Z,92.90
2018-11-14T20:46:37.514Z,92.90
2018-11-14T20:49:10.372Z,92.10
2018-11-14T20:51:41.197Z,92.30
2018-11-14T20:54:11.466Z,92.00
2018-11-14T20:56:41.848Z,92.20
2018-11-14T20:59:12.732Z,92.10
2018-11-14T21:01:42.797Z,92.90
2018-11-14T21:04:15.863Z,93.20
2018-11-14T21:06:47.802Z,93.80
2018-11-14T21:09:19.228Z,94.40
2018-11-14T21:11:50.459Z,94.90
2018-11-14T21:14:22.887Z,95.20
2018-11-14T21:16:53.052Z,95.20
2018-11-14T21:19:23.815Z,95.20
2018-11-14T21:21:58.988Z,95.40
2018-11-14T21:24:29.320Z,95.40
2018-11-14T21:27:00.454Z,94.90
2018-11-14T21:29:30.895Z,94.90
2018-11-14T21:32:01.828Z,93.60
2018-11-14T21:34:32.618Z,93.30
2018-11-14T21:37:02.977Z,92.80
2018-11-14T21:39:33.293Z,92.80
2018-11-14T21:42:04.219Z,93.00
2018-11-14T21:44:34.937Z,94.00
2018-11-14T21:47:06.787Z,94.30
2018-11-14T21:49:37.324Z,94.30
2018-11-14T21:52:07.999Z,94.30
2018-11-14T21:54:39.522Z,94.40
2018-11-14T21:57:11.044Z,94.10
2018-11-14T21:59:42.099Z,93.70
2018-11-14T22:02:12.532Z,93.00
2018-11-14T22:04:43.548Z,92.60
2018-11-14T22:07:14.158Z,92.30
2018-11-14T22:09:44.498Z,91.90
2018-11-14T22:12:15.042Z,92.00
2018-11-14T22:14:45.299Z,91.70
2018-11-14T22:17:15.487Z,91.50
2018-11-14T22:19:45.996Z,91.30
2018-11-14T22:22:17.756Z,91.10
2018-11-14T22:24:49.123Z,91.30
2018-11-14T22:27:20.463Z,91.00
2018-11-14T22:29:51.004Z,91.10
2018-11-14T22:32:22.334Z,91.20
2018-11-14T22:34:53.203Z,91.30
2018-11-14T22:37:23.585Z,91.70
2018-11-14T22:39:53.919Z,91.80
2018-11-14T22:42:24.132Z,91.10
2018-11-14T22:44:54.514Z,91.20
2018-11-14T22:47:24.531Z,91.40
2018-11-14T22:49:56.975Z,91.10
2018-11-14T22:52:26.976Z,91.20
2018-11-14T22:54:58.032Z,90.60
2018-11-14T22:57:28.198Z,90.30
2018-11-14T22:59:59.820Z,90.40
2018-11-14T23:02:31.196Z,90.00
2018-11-14T23:05:03.688Z,90.20
2018-11-14T23:07:34.077Z,90.40
2018-11-14T23:10:06.768Z,90.40
2018-11-14T23:12:36.894Z,90.80
2018-11-14T23:15:08.837Z,91.00
2018-11-14T23:17:39.072Z,91.00
2018-11-14T23:20:12.468Z,91.10
2018-11-14T23:22:43.507Z,91.20
2018-11-14T23:25:14.699Z,91.00
2018-11-14T23:27:46.921Z,90.40
2018-11-14T23:30:18.300Z,91.00
2018-11-14T23:32:50.474Z,91.40
2018-11-14T23:35:25.841Z,91.40
2018-11-14T23:37:57.888Z,91.60
2018-11-14T23:40:28.104Z,91.50
2018-11-14T23:42:58.361Z,91.50
2018-11-14T23:45:29.365Z,91.20
2018-11-14T23:48:00.016Z,90.70
2018-11-14T23:50:32.177Z,90.30
2018-11-14T23:53:03.206Z,90.50
2018-11-14T23:55:33.456Z,90.60
2018-11-14T23:58:03.391Z,90.60
